首页
METAR-TAF:

METAR-TAF

机场 :

旧克罗, 育康省, 加拿大

纬度: 67-34N, 经度: 139-49W, 海拔: 251米

当前天气观测

该预报发布于43分钟前的19:00 UTC
风速2节,风向多变
温度 -28°C
湿度 51%
气压 1030 hPa
能見度: 56.3公里
天空无云

METAR: CYOC 101900Z VRB02KT 35SM SKC M28/M35 A3042 RMK SLP343

时间: 12:43 (19:43 UTC)

预报

该预报发布于1小时和5分钟前的18:38 UTC
预报有效从10日的 19点(UTC)到 11日的 01点(UTC)
风速3节,风向多变
能見度: 10公里
天空无云

TAF: CYOC 101838Z 1019/1101 VRB03KT P6SM SKC RMK NXT FCST WILL BE ISSUED AT 111445Z

超过4000个机场的气象观测和天气预报(METAR&TAF报告)。

可查询的气象台以黄色和红色小点在地图上表示。

将鼠标移到小点上方,可查看气象台名称。

然后点击查看天气观测和预报。

如需切换地图:点击带黑十字的绿色按钮放大地图;点击带横线的绿色按钮缩小地图;或者点击绿色箭头查看邻近地区的地图。


METAR-TAF: